createdAt,value
2022-08-19T00:01:53.257Z,8.93
2022-08-19T00:06:48.452Z,8.83
2022-08-19T00:11:42.437Z,9.23
2022-08-19T00:16:38.770Z,9.57
2022-08-19T00:21:34.066Z,9.40
2022-08-19T00:26:27.948Z,10.80
2022-08-19T00:31:23.272Z,9.43
2022-08-19T00:36:16.653Z,9.90
2022-08-19T00:41:12.847Z,9.18
2022-08-19T00:46:11.494Z,9.93
2022-08-19T00:51:08.012Z,9.85
2022-08-19T00:56:03.693Z,10.18
2022-08-19T01:00:59.149Z,9.98
2022-08-19T01:05:56.536Z,10.07
2022-08-19T01:10:56.755Z,10.18
2022-08-19T01:15:55.377Z,10.25
2022-08-19T01:20:50.760Z,10.18
2022-08-19T01:25:48.651Z,10.18
2022-08-19T01:30:50.909Z,12.05
2022-08-19T01:35:45.067Z,11.40
2022-08-19T01:40:41.593Z,10.63
2022-08-19T01:45:37.333Z,11.40
2022-08-19T01:50:31.780Z,12.38
2022-08-19T01:55:26.112Z,12.10
2022-08-19T02:00:24.306Z,12.95
2022-08-19T02:05:22.119Z,11.75
2022-08-19T02:10:19.209Z,11.82
2022-08-19T02:15:13.180Z,12.00
2022-08-19T02:20:09.047Z,12.48
2022-08-19T02:25:07.611Z,12.95
2022-08-19T02:30:02.637Z,12.80
2022-08-19T02:34:56.452Z,12.40
2022-08-19T02:39:52.074Z,12.57
2022-08-19T02:44:48.110Z,12.38
2022-08-19T02:49:41.659Z,12.35
2022-08-19T02:54:36.075Z,11.98
2022-08-19T02:59:33.142Z,12.40
2022-08-19T03:04:30.834Z,12.05
2022-08-19T03:09:25.529Z,12.40
2022-08-19T03:14:20.347Z,12.48
2022-08-19T03:19:14.170Z,12.43
2022-08-19T03:24:11.520Z,12.55
2022-08-19T03:29:06.682Z,13.00
2022-08-19T03:34:02.139Z,12.00
2022-08-19T03:38:59.991Z,12.88
2022-08-19T03:43:58.777Z,15.32
2022-08-19T03:48:56.118Z,12.85
2022-08-19T03:53:52.810Z,11.75
2022-08-19T03:58:47.442Z,12.48
2022-08-19T04:03:45.015Z,12.80
2022-08-19T04:08:43.587Z,13.27
2022-08-19T04:13:40.515Z,13.82
2022-08-19T04:18:39.284Z,12.85
2022-08-19T04:23:38.397Z,13.40
2022-08-19T04:28:41.911Z,14.02
2022-08-19T04:34:11.576Z,13.67
2022-08-19T04:39:36.012Z,14.68
2022-08-19T04:44:49.114Z,13.43
2022-08-19T04:49:59.689Z,14.95
2022-08-19T04:55:04.831Z,13.48
2022-08-19T05:00:01.395Z,13.63
2022-08-19T05:05:03.994Z,12.77
2022-08-19T05:10:05.092Z,13.43
2022-08-19T05:21:01.265Z,13.88
2022-08-19T05:25:58.283Z,14.52
2022-08-19T05:30:59.536Z,14.10
2022-08-19T05:35:57.845Z,13.48
2022-08-19T05:40:53.631Z,14.45
2022-08-19T05:45:47.919Z,13.25
2022-08-19T05:51:01.286Z,13.77
2022-08-19T05:56:18.443Z,13.85
2022-08-19T06:01:16.050Z,15.35
2022-08-19T06:06:17.727Z,14.73
2022-08-19T06:11:22.836Z,14.07
2022-08-19T06:16:20.547Z,14.05
2022-08-19T06:21:18.911Z,14.63
2022-08-19T06:26:14.680Z,14.83
2022-08-19T06:31:09.467Z,15.35
2022-08-19T06:36:07.974Z,14.98
2022-08-19T06:41:08.132Z,14.82
2022-08-19T06:46:06.457Z,14.75
2022-08-19T06:51:19.272Z,13.90
2022-08-19T06:56:28.957Z,13.63
2022-08-19T07:01:24.728Z,12.15
2022-08-19T07:06:43.936Z,10.98
2022-08-19T07:11:40.157Z,10.00
2022-08-19T07:16:53.076Z,8.77
2022-08-19T07:22:01.582Z,8.65
2022-08-19T07:27:10.384Z,8.80
2022-08-19T07:32:20.944Z,8.07
2022-08-19T07:37:15.445Z,8.07
2022-08-19T07:42:33.717Z,7.45
2022-08-19T07:52:41.964Z,8.05
2022-08-19T08:02:46.531Z,7.60
2022-08-19T08:08:03.236Z,7.32
2022-08-19T08:18:59.750Z,7.22
2022-08-19T08:30:35.660Z,8.05
2022-08-19T08:36:16.759Z,7.97
2022-08-19T08:42:39.466Z,7.50
2022-08-19T08:47:20.167Z,7.20
2022-08-19T08:52:47.386Z,7.03
2022-08-19T08:58:09.539Z,6.65
2022-08-19T09:03:35.634Z,6.95
2022-08-19T09:09:12.102Z,7.30
2022-08-19T09:14:51.074Z,7.00
2022-08-19T09:19:57.703Z,7.38
2022-08-19T09:24:54.302Z,7.00
2022-08-19T09:29:49.373Z,7.75
2022-08-19T09:34:47.578Z,7.65
2022-08-19T09:39:44.037Z,8.15
2022-08-19T09:44:57.476Z,7.32
2022-08-19T09:49:54.627Z,7.22
2022-08-19T09:54:51.941Z,6.85
2022-08-19T09:59:46.048Z,7.28
2022-08-19T10:04:58.051Z,7.47
2022-08-19T10:09:51.490Z,7.75
2022-08-19T10:14:47.537Z,6.55
2022-08-19T10:19:42.355Z,7.80
2022-08-19T10:29:46.380Z,7.32
2022-08-19T10:34:48.100Z,7.32
2022-08-19T10:39:43.333Z,7.47
2022-08-19T10:44:38.581Z,7.15
2022-08-19T10:49:33.274Z,6.95
2022-08-19T10:54:50.243Z,7.75
2022-08-19T10:59:43.798Z,7.72
2022-08-19T11:04:39.267Z,7.30
2022-08-19T11:09:42.162Z,6.82
2022-08-19T11:14:37.032Z,6.38
2022-08-19T11:19:34.372Z,6.97
2022-08-19T11:29:26.893Z,6.80
2022-08-19T11:34:24.882Z,6.78
2022-08-19T11:39:21.383Z,6.57
2022-08-19T11:44:15.781Z,6.03
2022-08-19T11:49:14.019Z,7.03
2022-08-19T11:54:11.070Z,6.75
2022-08-19T11:59:04.851Z,6.90
2022-08-19T12:04:00.994Z,6.32
2022-08-19T12:09:08.914Z,6.50
2022-08-19T12:14:05.728Z,6.32
2022-08-19T12:19:04.511Z,6.47
2022-08-19T12:24:01.246Z,6.35
2022-08-19T12:28:55.412Z,6.10
2022-08-19T12:33:53.534Z,5.85
2022-08-19T12:38:50.227Z,6.20
2022-08-19T12:43:45.331Z,5.97
2022-08-19T12:48:43.054Z,6.00
2022-08-19T12:53:51.992Z,6.85
2022-08-19T12:58:50.215Z,5.80
2022-08-19T13:03:55.465Z,6.32
2022-08-19T13:08:51.120Z,6.05
2022-08-19T13:13:50.131Z,6.20
2022-08-19T13:18:45.092Z,6.35
2022-08-19T13:23:41.352Z,6.25
2022-08-19T13:28:48.928Z,5.50
2022-08-19T13:33:52.443Z,6.10
2022-08-19T13:38:55.543Z,6.13
2022-08-19T13:43:52.102Z,6.50
2022-08-19T13:48:52.089Z,5.85
2022-08-19T13:53:48.068Z,5.82
2022-08-19T13:58:59.474Z,5.70
2022-08-19T14:04:02.888Z,5.35
2022-08-19T14:08:59.914Z,4.93
2022-08-19T14:14:05.051Z,5.25
2022-08-19T14:19:10.207Z,5.90
2022-08-19T14:24:06.336Z,5.55
2022-08-19T14:29:14.925Z,5.50
2022-08-19T14:34:11.960Z,5.43
2022-08-19T14:39:08.388Z,5.97
2022-08-19T14:44:05.926Z,5.30
2022-08-19T14:49:09.386Z,5.75
2022-08-19T14:54:05.010Z,6.18
2022-08-19T14:59:02.183Z,6.00
2022-08-19T15:03:56.576Z,6.05
2022-08-19T15:08:52.761Z,5.85
2022-08-19T15:13:48.561Z,5.60
2022-08-19T15:18:45.413Z,5.57
2022-08-19T15:23:45.509Z,5.83
2022-08-19T15:28:39.643Z,5.88
2022-08-19T15:33:36.478Z,5.97
2022-08-19T15:38:30.196Z,5.83
2022-08-19T15:43:23.782Z,5.40
2022-08-19T15:48:17.486Z,6.70
2022-08-19T15:53:12.887Z,6.20
2022-08-19T15:58:28.573Z,6.03
2022-08-19T16:03:42.346Z,6.07
2022-08-19T16:08:57.604Z,5.93
2022-08-19T16:14:11.657Z,6.15
2022-08-19T16:19:10.503Z,6.63
2022-08-19T16:24:14.047Z,6.28
2022-08-19T16:29:27.776Z,6.63
2022-08-19T16:34:32.085Z,6.13
2022-08-19T16:39:31.811Z,6.25
2022-08-19T16:44:29.779Z,6.43
2022-08-19T16:49:53.915Z,6.38
2022-08-19T16:54:40.875Z,6.10
2022-08-19T16:59:36.865Z,6.82
2022-08-19T17:04:39.826Z,6.53
2022-08-19T17:09:42.617Z,7.45
2022-08-19T17:14:36.866Z,6.70
2022-08-19T17:19:32.961Z,7.60
2022-08-19T17:24:26.264Z,8.35
2022-08-19T17:29:28.910Z,8.02
2022-08-19T17:34:25.156Z,8.05
2022-08-19T17:39:20.810Z,8.05
2022-08-19T17:44:17.122Z,8.93
2022-08-19T17:49:12.154Z,8.88
2022-08-19T17:54:17.228Z,7.93
2022-08-19T17:59:18.461Z,7.70
2022-08-19T18:04:14.562Z,7.05
2022-08-19T18:09:09.924Z,6.90
2022-08-19T18:14:03.509Z,6.85
2022-08-19T18:19:01.905Z,7.40
2022-08-19T18:24:02.096Z,5.80
2022-08-19T18:28:58.211Z,5.72
2022-08-19T18:34:25.901Z,5.95
2022-08-19T18:45:27.371Z,5.78
2022-08-19T18:56:18.163Z,5.65
2022-08-19T19:12:48.584Z,5.55
2022-08-19T19:18:18.383Z,5.38
2022-08-19T19:23:56.448Z,5.47
2022-08-19T19:28:54.523Z,6.03
2022-08-19T19:33:54.532Z,5.78
2022-08-19T19:39:11.310Z,5.68
2022-08-19T19:44:30.495Z,6.20
2022-08-19T19:49:48.337Z,6.07
2022-08-19T19:54:58.321Z,5.57
2022-08-19T19:59:57.168Z,5.88
2022-08-19T20:05:14.110Z,6.28
2022-08-19T20:11:03.917Z,6.43
2022-08-19T20:16:08.246Z,6.65
2022-08-19T20:21:01.940Z,5.97
2022-08-19T20:25:57.103Z,5.90
2022-08-19T20:30:56.051Z,6.00
2022-08-19T20:35:57.276Z,6.85
2022-08-19T20:40:56.681Z,6.10
2022-08-19T20:46:05.539Z,6.15
2022-08-19T20:56:27.078Z,6.50
2022-08-19T21:01:39.128Z,5.90
2022-08-19T21:06:56.330Z,5.95
2022-08-19T21:17:02.042Z,5.72
2022-08-19T21:22:03.572Z,6.85
2022-08-19T21:27:21.793Z,6.45
2022-08-19T21:32:18.391Z,5.95
2022-08-19T21:37:25.153Z,6.53
2022-08-19T21:42:21.229Z,6.82
2022-08-19T21:47:21.367Z,5.82
2022-08-19T21:52:43.872Z,6.20
2022-08-19T21:57:41.435Z,6.20
2022-08-19T22:02:40.758Z,6.10
2022-08-19T22:07:58.058Z,5.93
2022-08-19T22:13:28.348Z,6.20
2022-08-19T22:23:59.187Z,6.25
2022-08-19T22:28:55.844Z,6.47
2022-08-19T22:33:55.785Z,6.95
2022-08-19T22:38:56.018Z,6.95
2022-08-19T22:43:49.955Z,6.97
2022-08-19T22:48:43.291Z,6.95
2022-08-19T22:53:38.343Z,7.25
2022-08-19T22:58:33.296Z,8.20
2022-08-19T23:03:30.193Z,8.30
2022-08-19T23:08:27.406Z,8.45
2022-08-19T23:13:20.803Z,8.00
2022-08-19T23:18:15.625Z,8.68
2022-08-19T23:23:12.076Z,8.60
2022-08-19T23:28:24.050Z,8.63
2022-08-19T23:33:24.645Z,8.40
2022-08-19T23:38:22.865Z,9.25
2022-08-19T23:43:24.210Z,9.10
2022-08-19T23:48:20.100Z,9.32
2022-08-19T23:53:14.354Z,9.65
2022-08-19T23:58:08.751Z,9.00
